Startpagina
METAR-TAF:

METAR-TAF

Vliegvelden :

Guwahati, India

breedte: 26-06-22N, lengte: 091-35-09E, hoogte: 49 m

Actueel weer

Dit bericht is 25 minuten geleden gemaakt, om 13:00 UTC
Weinig wind
Temperatuur 30°C
Vochtigheid 84%
Druk 1003 hPa
Zicht: 3500 m
Verspreide wolken op 1800 ft
Gebroken wolken op 10000 ft
nevel

METAR: VEGT 191300Z 00000KT 3500 BR SCT018 BKN100 30/27 Q1003 NOSIG

Tijdstip: 18:55 (13:25 UTC)


TAF: ontbreekt

Waarnemingen en weersverwachtingen van meer dan 4000 vliegvelden (METAR en TAF).

De beschikbare stations zijn de gele en rode punten op de kaart.

Ga met uw muis naar het station om de naam te zien.

Klik dan om waarnemingen en weersverwachtingen te zien.

kaart wijzigen: klik op de groene knoppen met een zwart kruis om in te zoomen, op de groene knop met een streepje om uit te zoomen of op de groene pijlen voor aangrenzende kaarten.


METAR-TAF: